Time;durP1;ratioP1;P1;durP2;ratioP2;P2;SDS_P1;SDS_P2;PMS_P1;PMS_P2;Temp;Humidity;BMP_temperature;BMP_pressure;BME280_temperature;BME280_humidity;BME280_pressure;Samples;Min_cycle;Max_cycle;Signal;HPM_P1;HPM_P2
2023/04/01 00:02:28;;;;;;;;;;;;;;;9.64;100.00;99052.50;10380338;28;20296;-65
2023/04/01 00:07:30;;;;;;;;;;;;;;;9.59;100.00;99059.91;10380431;28;19925;-65
2023/04/01 00:12:33;;;;;;;;;;;;;;;9.74;100.00;99058.66;10363961;28;19941;-65
2023/04/01 00:17:35;;;;;;;;;;;;;;;9.78;100.00;99056.59;10363045;28;20324;-65
2023/04/01 00:22:37;;;;;;;;;;;;;;;9.62;100.00;99063.09;10379477;28;20373;-65
2023/04/01 00:27:40;;;;;;;;;;;;;;;9.66;100.00;99061.88;10380056;28;19944;-65
2023/04/01 00:32:42;;;;;;;;;;;;;;;9.61;100.00;99057.97;10380635;28;19925;-65
2023/04/01 00:37:44;;;;;;;;;;;;;;;9.64;100.00;99065.56;10363123;28;19925;-65
2023/04/01 00:42:47;;;;;;;;;;;;;;;9.59;100.00;99070.34;10379415;28;19929;-65
2023/04/01 00:47:49;;;;;;;;;;;;;;;9.73;100.00;99069.22;10379266;28;19952;-65
2023/04/01 00:52:51;;;;;;;;;;;;;;;9.62;100.00;99063.09;10379166;28;20029;-65
2023/04/01 00:57:53;;;;;;;;;;;;;;;9.75;100.00;99081.22;10379046;28;20154;-65
2023/04/01 01:02:55;;;;;;;;;;;;;;;9.70;100.00;99070.31;10345388;28;20443;-65
2023/04/01 01:08:04;;;;;;;;;;;;;;;9.70;100.00;99069.47;10377334;28;20368;-65
2023/04/01 01:13:26;;;;;;;;;;;;;;;9.82;100.00;99071.09;10361413;28;19925;-65
2023/04/01 01:18:32;;;;;;;;;;;;;;;9.93;100.00;99080.66;10360536;28;20332;-65
2023/04/01 01:23:34;;;;;;;;;;;;;;;9.51;100.00;99084.03;10377835;28;19926;-65
2023/04/01 01:28:42;;;;;;;;;;;;;;;9.72;100.00;99091.09;10387729;23;19925;-65
2023/04/01 01:33:54;;;;;;;;;;;;;;;9.78;100.00;99086.19;10419205;28;20031;-65
2023/04/01 01:38:56;;;;;;;;;;;;;;;9.63;100.00;99100.50;10400929;28;19925;-65
2023/04/01 01:43:58;;;;;;;;;;;;;;;9.84;100.00;99098.75;10417467;28;19937;-65
2023/04/01 01:49:00;;;;;;;;;;;;;;;9.71;100.00;99100.72;10400488;28;20049;-65
2023/04/01 01:54:03;;;;;;;;;;;;;;;9.74;100.00;99092.63;10399550;28;20407;-65
2023/04/01 01:59:06;;;;;;;;;;;;;;;9.96;100.00;99098.72;10418215;28;19929;-65
2023/04/01 02:04:09;;;;;;;;;;;;;;;9.62;100.00;99104.06;10398979;28;19925;-65
2023/04/01 02:09:11;;;;;;;;;;;;;;;9.63;100.00;99103.97;10399806;28;20366;-65
2023/04/01 02:14:15;;;;;;;;;;;;;;;9.71;100.00;99108.53;10416387;28;20323;-65
2023/04/01 02:19:22;;;;;;;;;;;;;;;9.65;100.00;99124.75;10400105;28;19936;-65
2023/04/01 02:24:25;;;;;;;;;;;;;;;9.59;100.00;99122.59;10399026;28;19926;-65
2023/04/01 02:29:27;;;;;;;;;;;;;;;9.88;100.00;99114.19;10398787;28;19929;-65
2023/04/01 02:34:29;;;;;;;;;;;;;;;9.69;100.00;99120.91;10399374;28;19932;-65
2023/04/01 02:39:31;;;;;;;;;;;;;;;9.61;100.00;99128.53;10398734;28;19925;-65
2023/04/01 02:44:34;;;;;;;;;;;;;;;9.58;100.00;99131.38;10397924;28;19925;-65
2023/04/01 02:49:36;;;;;;;;;;;;;;;9.69;100.00;99135.78;10416411;28;19929;-65
2023/04/01 02:54:38;;;;;;;;;;;;;;;9.87;100.00;99134.28;10414243;28;19929;-65
2023/04/01 02:59:40;;;;;;;;;;;;;;;9.81;100.00;99137.38;10416283;28;19976;-65
2023/04/01 03:04:42;;;;;;;;;;;;;;;9.39;100.00;99145.91;10416208;28;19980;-65
2023/04/01 03:09:44;;;;;;;;;;;;;;;9.58;100.00;99154.91;10414721;28;19925;-65
2023/04/01 03:14:47;;;;;;;;;;;;;;;9.34;100.00;99149.84;10415286;28;20288;-65
2023/04/01 03:19:49;;;;;;;;;;;;;;;9.55;100.00;99153.38;10398408;28;19925;-65
2023/04/01 03:24:51;;;;;;;;;;;;;;;9.36;100.00;99163.59;10414543;28;19925;-65
2023/04/01 03:29:54;;;;;;;;;;;;;;;9.44;100.00;99161.22;10414982;28;20323;-65
2023/04/01 03:34:56;;;;;;;;;;;;;;;9.58;100.00;99153.13;10415064;28;19932;-65
2023/04/01 03:39:58;;;;;;;;;;;;;;;9.37;100.00;99160.88;10413684;28;20376;-65
2023/04/01 03:45:00;;;;;;;;;;;;;;;9.42;100.00;99160.53;10415401;28;19925;-65
2023/04/01 03:50:03;;;;;;;;;;;;;;;9.33;100.00;99164.69;10414197;28;19925;-65
2023/04/01 03:55:05;;;;;;;;;;;;;;;9.21;100.00;99170.84;10397076;28;19925;-65
2023/04/01 04:00:08;;;;;;;;;;;;;;;9.46;100.00;99164.53;10397152;28;19933;-65
2023/04/01 04:05:10;;;;;;;;;;;;;;;9.17;100.00;99170.25;10414428;28;20000;-65
2023/04/01 04:10:13;;;;;;;;;;;;;;;9.27;100.00;99183.44;10421738;28;19925;-65
2023/04/01 04:15:15;;;;;;;;;;;;;;;9.26;100.00;99185.22;10404709;28;19972;-65
2023/04/01 04:20:17;;;;;;;;;;;;;;;9.42;100.00;99179.63;10420692;28;19925;-65
2023/04/01 04:25:19;;;;;;;;;;;;;;;9.29;100.00;99190.19;10421890;28;19929;-65
2023/04/01 04:30:22;;;;;;;;;;;;;;;9.19;100.00;99191.84;10420414;28;20292;-65
2023/04/01 04:35:24;;;;;;;;;;;;;;;9.07;100.00;99198.84;10420938;28;19929;-65
2023/04/01 04:40:27;;;;;;;;;;;;;;;9.18;100.00;99198.03;10420573;28;19929;-65
2023/04/01 04:45:29;;;;;;;;;;;;;;;8.99;100.00;99210.84;10380199;28;19925;-65
2023/04/01 04:50:32;;;;;;;;;;;;;;;9.02;100.00;99214.03;10384498;28;19931;-65
2023/04/01 04:55:34;;;;;;;;;;;;;;;9.01;100.00;99216.75;10420180;28;20368;-65
2023/04/01 05:00:36;;;;;;;;;;;;;;;8.96;100.00;99222.34;10402447;28;19933;-65
2023/04/01 05:05:39;;;;;;;;;;;;;;;8.88;100.00;99230.75;10419640;28;19987;-65
2023/04/01 05:10:41;;;;;;;;;;;;;;;9.04;100.00;99227.81;10420191;28;19933;-65
2023/04/01 05:15:43;;;;;;;;;;;;;;;8.88;100.00;99245.59;10385089;28;19987;-65
2023/04/01 05:20:47;;;;;;;;;;;;;;;8.95;100.00;99252.00;10418174;28;19932;-65
2023/04/01 05:25:49;;;;;;;;;;;;;;;9.02;100.00;99252.38;10419574;28;19971;-65
2023/04/01 05:30:52;;;;;;;;;;;;;;;9.17;100.00;99253.00;10401007;28;19932;-65
2023/04/01 05:35:54;;;;;;;;;;;;;;;9.21;100.00;99250.03;10411780;28;19925;-65
2023/04/01 05:41:00;;;;;;;;;;;;;;;8.99;100.00;99255.22;10378139;28;19933;-65
2023/04/01 05:46:02;;;;;;;;;;;;;;;9.05;100.00;99262.59;10377831;28;19925;-65
2023/04/01 05:51:05;;;;;;;;;;;;;;;9.04;100.00;99266.13;10390232;28;19925;-65
2023/04/01 05:56:09;;;;;;;;;;;;;;;9.16;100.00;99274.81;10417980;28;20376;-65
2023/04/01 06:01:11;;;;;;;;;;;;;;;9.12;100.00;99287.28;10418253;28;19984;-65
2023/04/01 06:06:24;;;;;;;;;;;;;;;9.19;100.00;99292.88;10415892;28;20422;-65
2023/04/01 06:11:37;;;;;;;;;;;;;;;9.32;100.00;99300.63;10399732;28;20384;-65
2023/04/01 06:16:39;;;;;;;;;;;;;;;9.30;100.00;99308.56;10398657;28;19931;-65
2023/04/01 06:21:48;;;;;;;;;;;;;;;9.37;100.00;99317.59;10417433;28;19925;-65
2023/04/01 06:27:01;;;;;;;;;;;;;;;9.43;100.00;99326.75;10398990;28;19925;-65
2023/04/01 06:32:20;;;;;;;;;;;;;;;9.56;100.00;99331.88;10381579;28;20372;-65
2023/04/01 06:37:35;;;;;;;;;;;;;;;9.52;100.00;99336.50;10398949;28;19925;-65
2023/04/01 06:42:57;;;;;;;;;;;;;;;9.57;100.00;99349.22;10399209;28;19933;-65
2023/04/01 06:48:05;;;;;;;;;;;;;;;9.56;100.00;99356.22;10415273;28;19925;-65
2023/04/01 06:53:11;;;;;;;;;;;;;;;9.53;100.00;99372.16;10399096;28;19933;-65
2023/04/01 06:58:18;;;;;;;;;;;;;;;9.80;100.00;99382.25;10416380;28;19925;-65
2023/04/01 07:03:32;;;;;;;;;;;;;;;9.72;100.00;99378.59;10397975;28;19925;-65
2023/04/01 07:08:36;;;;;;;;;;;;;;;9.64;100.00;99384.38;10416165;28;19971;-65
2023/04/01 07:13:44;;;;;;;;;;;;;;;9.63;100.00;99396.63;10397249;28;19932;-65
2023/04/01 07:18:50;;;;;;;;;;;;;;;9.65;100.00;99397.34;10414206;28;19925;-65
2023/04/01 07:23:52;;;;;;;;;;;;;;;9.60;100.00;99401.22;10387523;28;19925;-65
2023/04/01 07:28:54;;;;;;;;;;;;;;;9.58;100.00;99416.19;10412403;28;19979;-65
2023/04/01 07:34:10;;;;;;;;;;;;;;;9.83;100.00;99429.09;10414800;28;19948;-65
2023/04/01 07:39:16;;;;;;;;;;;;;;;9.78;100.00;99420.75;10394095;28;19931;-65
2023/04/01 07:44:29;;;;;;;;;;;;;;;9.79;100.00;99429.44;10405138;28;19936;-65
2023/04/01 07:49:31;;;;;;;;;;;;;;;9.76;100.00;99434.88;10404917;28;19925;-65
2023/04/01 07:54:34;;;;;;;;;;;;;;;9.88;100.00;99439.16;10419403;28;19979;-65
2023/04/01 07:59:36;;;;;;;;;;;;;;;10.15;100.00;99444.06;10421326;28;19925;-65
2023/04/01 08:04:44;;;;;;;;;;;;;;;10.22;100.00;99452.28;10417615;28;19987;-65
2023/04/01 08:09:46;;;;;;;;;;;;;;;10.12;100.00;99457.41;10418560;28;20372;-65
2023/04/01 08:14:58;;;;;;;;;;;;;;;10.06;100.00;99463.09;10420494;28;19975;-65
2023/04/01 08:20:19;;;;;;;;;;;;;;;10.16;100.00;99471.06;10420302;28;19925;-65
2023/04/01 08:25:25;;;;;;;;;;;;;;;10.29;100.00;99484.03;10407184;28;19968;-65
2023/04/01 08:30:33;;;;;;;;;;;;;;;10.26;100.00;99487.72;10399973;28;19929;-66
2023/04/01 08:35:39;;;;;;;;;;;;;;;10.26;100.00;99499.97;10399374;28;19925;-65
2023/04/01 08:40:50;;;;;;;;;;;;;;;10.49;100.00;99503.44;10397160;28;20768;-65
2023/04/01 08:46:11;;;;;;;;;;;;;;;10.47;100.00;99514.03;10377896;28;20450;-65
2023/04/01 08:51:13;;;;;;;;;;;;;;;10.28;100.00;99514.59;10373750;28;19940;-65
2023/04/01 08:56:34;;;;;;;;;;;;;;;10.35;100.00;99521.03;10400904;28;19960;-65
2023/04/01 09:01:50;;;;;;;;;;;;;;;10.41;100.00;99525.00;10414909;28;19925;-65
2023/04/01 09:06:56;;;;;;;;;;;;;;;10.40;100.00;99531.16;10393370;28;19925;-66
2023/04/01 09:12:01;;;;;;;;;;;;;;;10.44;100.00;99537.84;10417711;28;19933;-66
2023/04/01 09:17:22;;;;;;;;;;;;;;;10.52;100.00;99553.78;10401114;28;20028;-65
2023/04/01 09:22:24;;;;;;;;;;;;;;;10.67;100.00;99546.50;10418460;28;19932;-66
2023/04/01 09:27:30;;;;;;;;;;;;;;;10.47;100.00;99563.75;10417483;28;19925;-65
2023/04/01 09:32:36;;;;;;;;;;;;;;;10.47;100.00;99563.75;10399710;28;20008;-65
2023/04/01 09:37:38;;;;;;;;;;;;;;;10.39;100.00;99574.81;10417590;28;19929;-65
2023/04/01 09:42:44;;;;;;;;;;;;;;;10.56;100.00;99584.00;10416973;28;19965;-65
2023/04/01 09:48:05;;;;;;;;;;;;;;;10.43;100.00;99596.34;10399275;28;19932;-65
2023/04/01 09:53:27;;;;;;;;;;;;;;;10.67;100.00;99588.38;10417300;28;19932;-65
2023/04/01 09:58:32;;;;;;;;;;;;;;;10.59;100.00;99598.59;10415951;28;19979;-65
2023/04/01 10:03:53;;;;;;;;;;;;;;;10.25;100.00;99613.41;10416193;28;19932;-65
2023/04/01 10:08:58;;;;;;;;;;;;;;;10.44;100.00;99616.34;10417313;28;19925;-66
2023/04/01 10:14:20;;;;;;;;;;;;;;;10.69;100.00;99623.16;10400881;28;19928;-66
2023/04/01 10:19:34;;;;;;;;;;;;;;;10.65;100.00;99623.50;10414683;28;19932;-66
2023/04/01 10:24:47;;;;;;;;;;;;;;;10.73;100.00;99636.84;10415912;28;19925;-66
2023/04/01 10:29:49;;;;;;;;;;;;;;;10.64;100.00;99638.38;10399741;28;19928;-66
2023/04/01 10:35:10;;;;;;;;;;;;;;;10.55;100.00;99641.69;10415642;28;20636;-66
2023/04/01 10:40:18;;;;;;;;;;;;;;;10.82;100.00;99651.00;10416898;28;19952;-66
2023/04/01 10:45:39;;;;;;;;;;;;;;;10.94;100.00;99652.66;10416710;28;19925;-66
2023/04/01 10:50:44;;;;;;;;;;;;;;;10.82;100.00;99651.81;10415281;28;19932;-66
2023/04/01 10:56:06;;;;;;;;;;;;;;;10.74;100.00;99660.28;10414299;28;19932;-66
2023/04/01 11:01:20;;;;;;;;;;;;;;;10.78;100.00;99653.03;10415688;28;19975;-66
2023/04/01 11:06:45;;;;;;;;;;;;;;;10.71;100.00;99663.13;10357376;28;19926;-66
2023/04/01 11:12:06;;;;;;;;;;;;;;;10.45;100.00;99677.34;10397835;28;19925;-66
2023/04/01 11:17:27;;;;;;;;;;;;;;;10.89;100.00;99679.25;10419266;28;19929;-66
2023/04/01 11:22:42;;;;;;;;;;;;;;;10.62;100.00;99683.94;10422558;28;19932;-66
2023/04/01 11:27:47;;;;;;;;;;;;;;;10.66;100.00;99683.59;10422381;28;19979;-66
2023/04/01 11:32:58;;;;;;;;;;;;;;;10.94;100.00;99679.72;10423140;28;19926;-67
2023/04/01 11:38:04;;;;;;;;;;;;;;;10.71;100.00;99676.22;10423259;28;19979;-66
2023/04/01 11:43:08;;;;;;;;;;;;;;;10.89;100.00;99676.63;10421373;28;20288;-66
2023/04/01 11:48:27;;;;;;;;;;;;;;;11.36;100.00;99688.75;10406203;28;19971;-66
2023/04/01 11:53:44;;;;;;;;;;;;;;;11.34;100.00;99684.47;10422349;28;19925;-66
2023/04/01 11:58:56;;;;;;;;;;;;;;;11.20;100.00;99703.06;10405711;28;19925;-67
2023/04/01 12:04:04;;;;;;;;;;;;;;;11.07;100.00;99716.25;10421928;28;19929;-67
2023/04/01 12:09:25;;;;;;;;;;;;;;;11.03;100.00;99719.22;10421949;28;19925;-66
2023/04/01 12:14:36;;;;;;;;;;;;;;;11.05;100.00;99733.06;10381508;28;19926;-66
2023/04/01 12:19:57;;;;;;;;;;;;;;;11.16;100.00;99743.53;10364044;28;19929;-66
2023/04/01 12:25:00;;;;;;;;;;;;;;;11.17;100.00;99747.00;10390606;28;19925;-67
2023/04/01 12:30:08;;;;;;;;;;;;;;;11.24;100.00;99749.00;10421275;28;19975;-67
2023/04/01 12:35:13;;;;;;;;;;;;;;;11.38;100.00;99749.75;10421711;28;20016;-67
2023/04/01 12:40:33;;;;;;;;;;;;;;;11.17;100.00;99760.09;10403219;28;19925;-67
2023/04/01 12:45:55;;;;;;;;;;;;;;;11.21;100.00;99764.97;10419287;28;20265;-66
2023/04/01 12:51:17;;;;;;;;;;;;;;;11.18;100.00;99772.22;10419650;28;20368;-66
2023/04/01 12:56:35;;;;;;;;;;;;;;;11.10;100.00;99785.94;10402777;28;20343;-66
2023/04/01 13:01:49;;;;;;;;;;;;;;;11.23;100.00;99797.16;10420938;28;19932;-66
2023/04/01 13:06:54;;;;;;;;;;;;;;;11.17;100.00;99796.78;10417767;28;20269;-66
2023/04/01 13:11:59;;;;;;;;;;;;;;;10.83;100.00;99802.75;10418995;28;19932;-66
2023/04/01 13:17:11;;;;;;;;;;;;;;;10.84;100.00;99819.28;10419011;28;20376;-65
2023/04/01 13:22:15;;;;;;;;;;;;;;;10.87;100.00;99829.53;10419748;28;19929;-66
2023/04/01 13:27:29;;;;;;;;;;;;;;;10.72;100.00;99828.88;10401336;28;19932;-66
2023/04/01 13:32:43;;;;;;;;;;;;;;;10.88;100.00;99841.69;10418850;28;19925;-66
2023/04/01 13:37:52;;;;;;;;;;;;;;;10.90;100.00;99845.03;10399728;28;19925;-67
2023/04/01 13:43:04;;;;;;;;;;;;;;;11.11;100.00;99848.69;10400321;28;19925;-66
2023/04/01 13:48:19;;;;;;;;;;;;;;;10.87;100.00;99848.69;10398244;23;19932;-69
2023/04/01 13:53:21;;;;;;;;;;;;;;;11.15;100.00;99842.25;10417680;28;19925;-69
2023/04/01 13:58:28;;;;;;;;;;;;;;;10.83;100.00;99854.31;10417058;28;19929;-69
2023/04/01 14:03:33;;;;;;;;;;;;;;;10.94;100.00;99863.03;10400142;28;20429;-70
2023/04/01 14:08:49;;;;;;;;;;;;;;;10.84;100.00;99874.28;10418053;28;19925;-69
2023/04/01 14:14:10;;;;;;;;;;;;;;;11.03;100.00;99879.84;10416984;28;19925;-70
2023/04/01 14:19:25;;;;;;;;;;;;;;;11.14;100.00;99885.09;10417723;28;19929;-69
2023/04/01 14:24:51;;;;;;;;;;;;;;;11.06;100.00;99891.88;10399836;28;19925;-69
2023/04/01 14:29:56;;;;;;;;;;;;;;;11.41;100.00;99896.28;10398450;28;19932;-69
2023/04/01 14:35:04;;;;;;;;;;;;;;;11.24;100.00;99900.16;10415961;28;19925;-69
2023/04/01 14:40:20;;;;;;;;;;;;;;;11.42;100.00;99908.44;10417035;28;19925;-69
2023/04/01 14:45:22;;;;;;;;;;;;;;;11.06;100.00;99918.91;10416390;28;19932;-69
2023/04/01 14:50:25;;;;;;;;;;;;;;;11.07;100.00;99924.97;10415160;28;19975;-70
2023/04/01 14:55:29;;;;;;;;;;;;;;;10.87;100.00;99927.25;10399106;28;19932;-69
2023/04/01 15:00:50;;;;;;;;;;;;;;;11.44;100.00;99936.19;10398114;28;19969;-69
2023/04/01 15:06:11;;;;;;;;;;;;;;;11.63;100.00;99942.66;10398689;28;20331;-70
2023/04/01 15:11:26;;;;;;;;;;;;;;;11.68;100.00;99941.41;10416239;28;19929;-69
2023/04/01 15:16:28;;;;;;;;;;;;;;;11.67;100.00;99952.00;10397110;28;19925;-69
2023/04/01 15:21:32;;;;;;;;;;;;;;;11.73;100.00;99961.19;10415393;28;19929;-69
2023/04/01 15:26:37;;;;;;;;;;;;;;;11.81;100.00;99974.53;10414920;28;19936;-69
2023/04/01 15:31:52;;;;;;;;;;;;;;;11.96;100.00;99989.16;10396783;28;19925;-71
2023/04/01 15:37:00;;;;;;;;;;;;;;;12.15;100.00;99977.25;10398388;28;19928;-69
2023/04/01 15:42:06;;;;;;;;;;;;;;;12.06;100.00;99989.28;10397466;28;19933;-70
2023/04/01 15:47:23;;;;;;;;;;;;;;;12.12;100.00;99993.22;10413445;28;19933;-69
2023/04/01 15:52:44;;;;;;;;;;;;;;;12.12;100.00;100007.19;10414163;28;19967;-69
2023/04/01 15:57:59;;;;;;;;;;;;;;;12.13;100.00;100008.03;10413009;28;19929;-69
2023/04/01 16:03:10;;;;;;;;;;;;;;;11.78;100.00;100007.06;10418652;28;19926;-69
2023/04/01 16:08:23;;;;;;;;;;;;;;;11.81;100.00;100022.59;10422793;28;19971;-71
2023/04/01 16:13:34;;;;;;;;;;;;;;;11.45;100.00;100031.41;10405087;28;19929;-70
2023/04/01 16:18:36;;;;;;;;;;;;;;;11.55;100.00;100039.41;10422380;28;19929;-70
2023/04/01 16:24:00;;;;;;;;;;;;;;;11.32;100.00;100062.91;10421546;28;20008;-70
2023/04/01 16:29:04;;;;;;;;;;;;;;;11.19;100.00;100083.91;10403934;28;19951;-70
2023/04/01 16:34:21;;;;;;;;;;;;;;;11.10;100.00;100101.09;10421189;28;19925;-71
2023/04/01 16:39:32;;;;;;;;;;;;;;;11.01;100.00;100103.53;10403467;28;20319;-70
2023/04/01 16:44:46;;;;;;;;;;;;;;;11.11;100.00;100105.41;10403555;28;19929;-71
2023/04/01 16:49:54;;;;;;;;;;;;;;;11.23;100.00;100118.56;10403753;28;19925;-71
2023/04/01 16:54:58;;;;;;;;;;;;;;;11.24;100.00;100128.13;10403664;28;19983;-71
2023/04/01 17:00:15;;;;;;;;;;;;;;;11.28;100.00;100133.03;10403392;28;19925;-71
2023/04/01 17:05:17;;;;;;;;;;;;;;;11.15;100.00;100148.78;10403122;28;19925;-71
2023/04/01 17:10:32;;;;;;;;;;;;;;;11.19;100.00;100164.28;10402273;28;20319;-71
2023/04/01 17:15:38;;;;;;;;;;;;;;;10.94;100.00;100177.31;10401681;28;20372;-71
2023/04/01 17:21:02;;;;;;;;;;;;;;;10.81;100.00;100191.34;10402117;28;20424;-71
2023/04/01 17:26:10;;;;;;;;;;;;;;;10.39;100.00;100205.44;10419364;28;19983;-71
2023/04/01 17:31:43;;;;;;;;;;;;;;;10.57;100.00;100224.31;10419736;28;19925;-71
2023/04/01 17:37:07;;;;;;;;;;;;;;;10.49;100.00;100231.84;10401634;28;19929;-71
2023/04/01 17:42:11;;;;;;;;;;;;;;;10.21;100.00;100238.84;10419183;28;19975;-70
2023/04/01 17:47:22;;;;;;;;;;;;;;;10.20;100.00;100260.72;10418126;28;19925;-71
2023/04/01 17:52:27;;;;;;;;;;;;;;;10.23;100.00;100275.38;10418756;28;19968;-71
2023/04/01 17:57:48;;;;;;;;;;;;;;;10.20;100.00;100289.50;10400631;28;20388;-70
2023/04/01 18:02:57;;;;;;;;;;;;;;;10.19;100.00;100298.28;10417716;28;20288;-70
2023/04/01 18:08:04;;;;;;;;;;;;;;;10.18;100.00;100311.44;10400024;28;19947;-71
2023/04/01 18:13:35;;;;;;;;;;;;;;;10.09;100.00;100320.72;10400778;28;19979;-70
2023/04/01 18:18:41;;;;;;;;;;;;;;;9.66;100.00;100341.66;10400546;28;19930;-70
2023/04/01 18:23:44;;;;;;;;;;;;;;;9.83;100.00;100348.47;10416187;28;19979;-70
2023/04/01 18:28:58;;;;;;;;;;;;;;;9.66;100.00;100360.78;10400892;28;19925;-70
2023/04/01 18:34:15;;;;;;;;;;;;;;;9.56;100.00;100379.75;10399122;28;19925;-70
2023/04/01 18:39:36;;;;;;;;;;;;;;;9.32;100.00;100392.50;10399554;28;19925;-70
2023/04/01 18:44:41;;;;;;;;;;;;;;;9.38;100.00;100406.06;10416534;28;19925;-70
2023/04/01 18:50:01;;;;;;;;;;;;;;;9.53;100.00;100413.91;10399274;28;19925;-70
2023/04/01 18:55:03;;;;;;;;;;;;;;;9.47;100.00;100429.00;10398485;28;20431;-70
2023/04/01 19:00:13;;;;;;;;;;;;;;;9.22;100.00;100437.44;10416514;28;19925;-70
2023/04/01 19:05:18;;;;;;;;;;;;;;;9.20;100.00;100461.97;10398528;28;20467;-69
2023/04/01 19:10:27;;;;;;;;;;;;;;;9.30;100.00;100471.81;10398109;28;19991;-70
2023/04/01 19:15:35;;;;;;;;;;;;;;;9.22;100.00;100478.41;10416106;28;19925;-70
2023/04/01 19:20:53;;;;;;;;;;;;;;;9.09;100.00;100486.94;10415572;28;20399;-70
2023/04/01 19:26:00;;;;;;;;;;;;;;;9.24;100.00;100507.88;10414946;28;19933;-70
2023/04/01 19:31:11;;;;;;;;;;;;;;;9.03;100.00;100516.00;10398316;28;19925;-70
2023/04/01 19:36:20;;;;;;;;;;;;;;;9.07;100.00;100533.16;10398987;28;19980;-70
2023/04/01 19:41:26;;;;;;;;;;;;;;;8.83;100.00;100537.97;10423806;28;19925;-70
2023/04/01 19:46:49;;;;;;;;;;;;;;;8.88;100.00;100545.56;10405377;28;19972;-70
2023/04/01 19:52:03;;;;;;;;;;;;;;;8.68;100.00;100563.13;10382746;28;19932;-70
2023/04/01 19:57:11;;;;;;;;;;;;;;;8.63;100.00;100570.38;10405648;28;20056;-70
2023/04/01 20:02:19;;;;;;;;;;;;;;;8.68;100.00;100575.34;10405809;28;19929;-70
2023/04/01 20:07:42;;;;;;;;;;;;;;;8.67;100.00;100581.47;10422175;28;20376;-70
2023/04/01 20:12:56;;;;;;;;;;;;;;;8.51;100.00;100599.72;10421703;28;19925;-70
2023/04/01 20:17:59;;;;;;;;;;;;;;;8.67;100.00;100613.63;10421744;28;20335;-70
2023/04/01 20:23:05;;;;;;;;;;;;;;;8.58;100.00;100624.56;10404848;28;20055;-70
2023/04/01 20:28:21;;;;;;;;;;;;;;;8.56;100.00;100631.63;10404658;28;19972;-70
2023/04/01 20:33:42;;;;;;;;;;;;;;;8.62;100.00;100652.19;10404308;28;19925;-70
2023/04/01 20:38:44;;;;;;;;;;;;;;;8.52;100.00;100659.66;10421650;28;19925;-70
2023/04/01 20:43:49;;;;;;;;;;;;;;;8.38;100.00;100670.72;10421442;28;19975;-70
2023/04/01 20:48:58;;;;;;;;;;;;;;;8.52;100.00;100682.28;10420314;28;19925;-70
2023/04/01 20:54:03;;;;;;;;;;;;;;;8.42;100.00;100696.69;10420474;28;19928;-70
2023/04/01 20:59:19;;;;;;;;;;;;;;;8.47;100.00;100697.31;10419040;28;20024;-70
2023/04/01 21:04:21;;;;;;;;;;;;;;;8.27;100.00;100711.31;10420048;28;19929;-70
2023/04/01 21:09:27;;;;;;;;;;;;;;;8.26;100.00;100730.53;10419808;28;19925;-70
2023/04/01 21:14:44;;;;;;;;;;;;;;;8.11;100.00;100735.53;10417822;28;20368;-70
2023/04/01 21:20:04;;;;;;;;;;;;;;;8.32;100.00;100745.84;10418558;28;19936;-70
2023/04/01 21:25:25;;;;;;;;;;;;;;;8.18;100.00;100754.34;10419818;28;19925;-70
2023/04/01 21:30:58;;;;;;;;;;;;;;;7.89;100.00;100766.16;10418882;28;19929;-70
2023/04/01 21:36:03;;;;;;;;;;;;;;;7.90;100.00;100775.66;10383164;28;19932;-70
2023/04/01 21:41:15;;;;;;;;;;;;;;;7.80;100.00;100791.75;10418651;28;20303;-70
2023/04/01 21:46:20;;;;;;;;;;;;;;;7.70;100.00;100805.25;10416996;28;19925;-70
2023/04/01 21:51:40;;;;;;;;;;;;;;;7.87;100.00;100814.91;10418799;28;19956;-70
2023/04/01 21:56:45;;;;;;;;;;;;;;;7.98;100.00;100818.75;10418567;28;19979;-70
2023/04/01 22:02:08;;;;;;;;;;;;;;;7.83;100.00;100829.84;10417018;28;19932;-70
2023/04/01 22:07:17;;;;;;;;;;;;;;;7.91;100.00;100843.38;10399279;28;19948;-70
2023/04/01 22:12:21;;;;;;;;;;;;;;;7.52;100.00;100852.06;10399860;28;19925;-70
2023/04/01 22:17:29;;;;;;;;;;;;;;;7.65;100.00;100868.03;10359232;28;20274;-70
2023/04/01 22:22:31;;;;;;;;;;;;;;;7.51;100.00;100875.56;10379618;28;20384;-70
2023/04/01 22:27:35;;;;;;;;;;;;;;;7.49;100.00;100887.81;10417385;28;19929;-70
2023/04/01 22:32:41;;;;;;;;;;;;;;;7.71;100.00;100887.75;10392168;28;19932;-70
2023/04/01 22:37:43;;;;;;;;;;;;;;;7.53;100.00;100903.28;10375044;28;19925;-70
2023/04/01 22:42:53;;;;;;;;;;;;;;;7.48;100.00;100901.75;10378717;28;19975;-70
2023/04/01 22:48:01;;;;;;;;;;;;;;;7.35;100.00;100925.72;10415390;28;19936;-70
2023/04/01 22:53:18;;;;;;;;;;;;;;;7.34;100.00;100937.03;10399145;28;19925;-70
2023/04/01 22:58:35;;;;;;;;;;;;;;;7.40;100.00;100944.63;10416556;28;19925;-70
2023/04/01 23:03:40;;;;;;;;;;;;;;;7.20;100.00;100945.44;10397747;28;20379;-70
2023/04/01 23:08:48;;;;;;;;;;;;;;;7.08;100.00;100956.34;10398222;28;19925;-70
2023/04/01 23:13:56;;;;;;;;;;;;;;;7.20;100.00;100958.47;10413910;28;20288;-70
2023/04/01 23:19:10;;;;;;;;;;;;;;;7.33;100.00;100964.03;10398071;28;19975;-70
2023/04/01 23:24:12;;;;;;;;;;;;;;;7.06;100.00;100982.47;10398419;28;19932;-70
2023/04/01 23:29:15;;;;;;;;;;;;;;;7.08;100.00;100982.41;10415052;28;19948;-70
2023/04/01 23:34:21;;;;;;;;;;;;;;;6.98;100.00;100992.31;10397709;28;20347;-70
2023/04/01 23:39:23;;;;;;;;;;;;;;;7.00;100.00;101006.13;10397620;28;19932;-70
2023/04/01 23:44:26;;;;;;;;;;;;;;;7.05;100.00;101012.00;10414225;28;19952;-70
2023/04/01 23:49:34;;;;;;;;;;;;;;;6.81;100.00;101034.63;10397246;28;20281;-70
2023/04/01 23:54:42;;;;;;;;;;;;;;;6.82;100.00;101041.50;10398111;28;19933;-70
2023/04/01 23:59:46;;;;;;;;;;;;;;;6.73;100.00;101049.66;10375307;28;19926;-70
